sensor_id;sensor_type;location;lat;lon;timestamp;pressure;altitude;pressure_sealevel;temperature;humidity
5996;BME280;3026;53.612;7.278;2023-04-21T00:00:25;101932.56;;;8.29;100.00
5996;BME280;3026;53.612;7.278;2023-04-21T00:02:52;101924.56;;;8.28;100.00
5996;BME280;3026;53.612;7.278;2023-04-21T00:05:19;101929.13;;;8.27;100.00
5996;BME280;3026;53.612;7.278;2023-04-21T00:07:45;101927.53;;;8.25;100.00
5996;BME280;3026;53.612;7.278;2023-04-21T00:10:12;101921.38;;;8.23;100.00
5996;BME280;3026;53.612;7.278;2023-04-21T00:12:39;101925.06;;;8.22;100.00
5996;BME280;3026;53.612;7.278;2023-04-21T00:15:08;101930.78;;;8.18;100.00
5996;BME280;3026;53.612;7.278;2023-04-21T00:17:35;101923.63;;;8.17;100.00
5996;BME280;3026;53.612;7.278;2023-04-21T00:20:02;101913.75;;;8.16;100.00
5996;BME280;3026;53.612;7.278;2023-04-21T00:22:31;101920.16;;;8.15;100.00
5996;BME280;3026;53.612;7.278;2023-04-21T00:24:58;101920.16;;;8.15;100.00
5996;BME280;3026;53.612;7.278;2023-04-21T00:27:25;101913.88;;;8.15;100.00
5996;BME280;3026;53.612;7.278;2023-04-21T00:29:51;101907.59;;;8.14;100.00
5996;BME280;3026;53.612;7.278;2023-04-21T00:32:20;101913.03;;;8.14;100.00
5996;BME280;3026;53.612;7.278;2023-04-21T00:34:46;101902.16;;;8.14;100.00
5996;BME280;3026;53.612;7.278;2023-04-21T00:37:13;101917.59;;;8.14;100.00
5996;BME280;3026;53.612;7.278;2023-04-21T00:39:40;101908.72;;;8.12;100.00
5996;BME280;3026;53.612;7.278;2023-04-21T00:42:06;101906.13;;;8.10;100.00
5996;BME280;3026;53.612;7.278;2023-04-21T00:44:33;101904.38;;;8.09;100.00
5996;BME280;3026;53.612;7.278;2023-04-21T00:47:00;101898.94;;;8.09;100.00
5996;BME280;3026;53.612;7.278;2023-04-21T00:49:28;101902.66;;;8.08;100.00
5996;BME280;3026;53.612;7.278;2023-04-21T00:51:55;101892.66;;;8.09;100.00
5996;BME280;3026;53.612;7.278;2023-04-21T00:54:22;101902.66;;;8.08;100.00
5996;BME280;3026;53.612;7.278;2023-04-21T00:56:49;101895.63;;;8.06;100.00
5996;BME280;3026;53.612;7.278;2023-04-21T00:59:16;101893.78;;;8.06;100.00
5996;BME280;3026;53.612;7.278;2023-04-21T01:01:43;101892.06;;;8.05;100.00
5996;BME280;3026;53.612;7.278;2023-04-21T01:04:10;101890.34;;;8.04;100.00
5996;BME280;3026;53.612;7.278;2023-04-21T01:06:38;101882.19;;;8.04;100.00
5996;BME280;3026;53.612;7.278;2023-04-21T01:09:06;101883.19;;;8.03;100.00
5996;BME280;3026;53.612;7.278;2023-04-21T01:11:33;101876.91;;;8.03;100.00
5996;BME280;3026;53.612;7.278;2023-04-21T01:13:59;101876.03;;;8.02;100.00
5996;BME280;3026;53.612;7.278;2023-04-21T01:16:26;101883.19;;;8.03;100.00
5996;BME280;3026;53.612;7.278;2023-04-21T01:18:53;101873.44;;;8.01;100.00
5996;BME280;3026;53.612;7.278;2023-04-21T01:21:20;101872.59;;;8.00;100.00
5996;BME280;3026;53.612;7.278;2023-04-21T01:23:49;101868.88;;;8.01;100.00
5996;BME280;3026;53.612;7.278;2023-04-21T01:26:16;101861.72;;;8.00;100.00
5996;BME280;3026;53.612;7.278;2023-04-21T01:28:43;101861.97;;;7.97;100.00
5996;BME280;3026;53.612;7.278;2023-04-21T01:31:12;101874.31;;;8.01;100.00
5996;BME280;3026;53.612;7.278;2023-04-21T01:33:38;101874.31;;;8.01;100.00
5996;BME280;3026;53.612;7.278;2023-04-21T01:36:06;101871.59;;;8.01;100.00
5996;BME280;3026;53.612;7.278;2023-04-21T01:38:36;101868.88;;;8.01;100.00
5996;BME280;3026;53.612;7.278;2023-04-21T01:41:04;101859.88;;;8.01;100.00
5996;BME280;3026;53.612;7.278;2023-04-21T01:43:31;101857.28;;;7.99;100.00
5996;BME280;3026;53.612;7.278;2023-04-21T01:45:57;101854.56;;;7.99;100.00
5996;BME280;3026;53.612;7.278;2023-04-21T01:48:24;101847.28;;;8.00;100.00
5996;BME280;3026;53.612;7.278;2023-04-21T01:50:51;101850.97;;;7.99;100.00
5996;BME280;3026;53.612;7.278;2023-04-21T01:53:18;101842.94;;;7.97;100.00
5996;BME280;3026;53.612;7.278;2023-04-21T01:55:44;101840.25;;;7.97;100.00
5996;BME280;3026;53.612;7.278;2023-04-21T01:58:13;101838.53;;;7.96;100.00
5996;BME280;3026;53.612;7.278;2023-04-21T02:00:39;101837.66;;;7.96;100.00
5996;BME280;3026;53.612;7.278;2023-04-21T02:03:06;101835.06;;;7.94;100.00
5996;BME280;3026;53.612;7.278;2023-04-21T02:05:33;101830.63;;;7.93;100.00
5996;BME280;3026;53.612;7.278;2023-04-21T02:08:00;101834.34;;;7.92;100.00
5996;BME280;3026;53.612;7.278;2023-04-21T02:10:26;101834.50;;;7.90;100.00
5996;BME280;3026;53.612;7.278;2023-04-21T02:12:53;101834.63;;;7.89;100.00
5996;BME280;3026;53.612;7.278;2023-04-21T02:15:21;101838.34;;;7.88;100.00
5996;BME280;3026;53.612;7.278;2023-04-21T02:17:48;101837.56;;;7.86;100.00
5996;BME280;3026;53.612;7.278;2023-04-21T02:20:15;101828.56;;;7.85;100.00
5996;BME280;3026;53.612;7.278;2023-04-21T02:22:41;101828.72;;;7.84;100.00
5996;BME280;3026;53.612;7.278;2023-04-21T02:25:08;101834.13;;;7.84;100.00
5996;BME280;3026;53.612;7.278;2023-04-21T02:27:35;101832.41;;;7.83;100.00
5996;BME280;3026;53.612;7.278;2023-04-21T02:30:03;101838.84;;;7.82;100.00
5996;BME280;3026;53.612;7.278;2023-04-21T02:32:31;101826.25;;;7.81;100.00
5996;BME280;3026;53.612;7.278;2023-04-21T02:34:58;101821.81;;;7.80;100.00
5996;BME280;3026;53.612;7.278;2023-04-21T02:37:24;101825.53;;;7.79;100.00
5996;BME280;3026;53.612;7.278;2023-04-21T02:39:51;101820.09;;;7.79;100.00
5996;BME280;3026;53.612;7.278;2023-04-21T02:42:18;101823.81;;;7.78;100.00
5996;BME280;3026;53.612;7.278;2023-04-21T02:44:45;101823.81;;;7.78;100.00
5996;BME280;3026;53.612;7.278;2023-04-21T02:47:14;101827.53;;;7.77;100.00
5996;BME280;3026;53.612;7.278;2023-04-21T02:49:42;101832.94;;;7.77;100.00
5996;BME280;3026;53.612;7.278;2023-04-21T02:52:09;101818.63;;;7.75;100.00
5996;BME280;3026;53.612;7.278;2023-04-21T02:54:36;101815.19;;;7.73;100.00
5996;BME280;3026;53.612;7.278;2023-04-21T02:57:03;101816.91;;;7.74;100.00
5996;BME280;3026;53.612;7.278;2023-04-21T02:59:29;101815.19;;;7.73;100.00
5996;BME280;3026;53.612;7.278;2023-04-21T03:01:56;101816.03;;;7.73;100.00
5996;BME280;3026;53.612;7.278;2023-04-21T03:04:23;101815.19;;;7.73;100.00
5996;BME280;3026;53.612;7.278;2023-04-21T03:06:52;101820.59;;;7.73;100.00
5996;BME280;3026;53.612;7.278;2023-04-21T03:09:19;101810.75;;;7.72;100.00
5996;BME280;3026;53.612;7.278;2023-04-21T03:11:46;101817.03;;;7.72;100.00
5996;BME280;3026;53.612;7.278;2023-04-21T03:14:12;101811.75;;;7.71;100.00
5996;BME280;3026;53.612;7.278;2023-04-21T03:16:39;101806.31;;;7.71;100.00
5996;BME280;3026;53.612;7.278;2023-04-21T03:19:06;101810.88;;;7.70;100.00
5996;BME280;3026;53.612;7.278;2023-04-21T03:21:35;101811.75;;;7.71;100.00
5996;BME280;3026;53.612;7.278;2023-04-21T03:24:04;101813.72;;;7.69;100.00
5996;BME280;3026;53.612;7.278;2023-04-21T03:26:31;101802.88;;;7.69;100.00
5996;BME280;3026;53.612;7.278;2023-04-21T03:28:58;101799.44;;;7.67;100.00
5996;BME280;3026;53.612;7.278;2023-04-21T03:31:25;101801.16;;;7.68;100.00
5996;BME280;3026;53.612;7.278;2023-04-21T03:33:51;101799.44;;;7.67;100.00
5996;BME280;3026;53.612;7.278;2023-04-21T03:36:18;101792.28;;;7.66;100.00
5996;BME280;3026;53.612;7.278;2023-04-21T03:38:45;101803.13;;;7.66;100.00
5996;BME280;3026;53.612;7.278;2023-04-21T03:41:13;101805.09;;;7.64;100.00
5996;BME280;3026;53.612;7.278;2023-04-21T03:43:40;101802.38;;;7.64;100.00
5996;BME280;3026;53.612;7.278;2023-04-21T03:46:07;101795.38;;;7.61;100.00
5996;BME280;3026;53.612;7.278;2023-04-21T03:48:33;101794.50;;;7.60;100.00
5996;BME280;3026;53.612;7.278;2023-04-21T03:51:00;101800.94;;;7.59;100.00
5996;BME280;3026;53.612;7.278;2023-04-21T03:53:27;101798.22;;;7.59;100.00
5996;BME280;3026;53.612;7.278;2023-04-21T03:55:54;101801.94;;;7.58;100.00
5996;BME280;3026;53.612;7.278;2023-04-21T03:58:22;101797.34;;;7.59;100.00
5996;BME280;3026;53.612;7.278;2023-04-21T04:00:49;101800.22;;;7.57;100.00
5996;BME280;3026;53.612;7.278;2023-04-21T04:03:15;101801.94;;;7.58;100.00
5996;BME280;3026;53.612;7.278;2023-04-21T04:05:42;101805.63;;;7.57;100.00
5996;BME280;3026;53.612;7.278;2023-04-21T04:08:09;101802.06;;;7.57;100.00
5996;BME280;3026;53.612;7.278;2023-04-21T04:10:36;101805.91;;;7.54;100.00
5996;BME280;3026;53.612;7.278;2023-04-21T04:13:03;101809.34;;;7.56;100.00
5996;BME280;3026;53.612;7.278;2023-04-21T04:15:31;101800.47;;;7.54;100.00
5996;BME280;3026;53.612;7.278;2023-04-21T04:17:58;101797.91;;;7.53;100.00
5996;BME280;3026;53.612;7.278;2023-04-21T04:20:26;101805.03;;;7.54;100.00
5996;BME280;3026;53.612;7.278;2023-04-21T04:22:52;101804.19;;;7.53;100.00
5996;BME280;3026;53.612;7.278;2023-04-21T04:25:19;101797.00;;;7.52;100.00
5996;BME280;3026;53.612;7.278;2023-04-21T04:27:46;101795.28;;;7.51;100.00
5996;BME280;3026;53.612;7.278;2023-04-21T04:30:13;101797.00;;;7.52;100.00
5996;BME280;3026;53.612;7.278;2023-04-21T04:32:42;101798.75;;;7.53;100.00
5996;BME280;3026;53.612;7.278;2023-04-21T04:35:09;101791.56;;;7.52;100.00
5996;BME280;3026;53.612;7.278;2023-04-21T04:37:37;101795.28;;;7.51;100.00
5996;BME280;3026;53.612;7.278;2023-04-21T04:40:06;101801.56;;;7.52;100.00
5996;BME280;3026;53.612;7.278;2023-04-21T04:42:35;101797.00;;;7.52;100.00
5996;BME280;3026;53.612;7.278;2023-04-21T04:45:05;101798.00;;;7.51;100.00
5996;BME280;3026;53.612;7.278;2023-04-21T04:47:32;101797.00;;;7.52;100.00
5996;BME280;3026;53.612;7.278;2023-04-21T04:50:00;101792.34;;;7.54;100.00
5996;BME280;3026;53.612;7.278;2023-04-21T04:52:27;101791.34;;;7.55;100.00
5996;BME280;3026;53.612;7.278;2023-04-21T04:54:54;101794.19;;;7.54;100.00
5996;BME280;3026;53.612;7.278;2023-04-21T04:57:21;101801.94;;;7.58;100.00
5996;BME280;3026;53.612;7.278;2023-04-21T04:59:48;101798.22;;;7.59;100.00
5996;BME280;3026;53.612;7.278;2023-04-21T05:02:15;101795.50;;;7.59;100.00
5996;BME280;3026;53.612;7.278;2023-04-21T05:04:42;101805.38;;;7.60;100.00
5996;BME280;3026;53.612;7.278;2023-04-21T05:07:10;101799.66;;;7.64;100.00
5996;BME280;3026;53.612;7.278;2023-04-21T05:09:37;101794.25;;;7.64;100.00
5996;BME280;3026;53.612;7.278;2023-04-21T05:12:04;101798.44;;;7.68;100.00
5996;BME280;3026;53.612;7.278;2023-04-21T05:14:31;101808.31;;;7.69;100.00
5996;BME280;3026;53.612;7.278;2023-04-21T05:16:58;101800.88;;;7.71;100.00
5996;BME280;3026;53.612;7.278;2023-04-21T05:19:25;101799.16;;;7.70;100.00
5996;BME280;3026;53.612;7.278;2023-04-21T05:21:51;101815.66;;;7.78;100.00
5996;BME280;3026;53.612;7.278;2023-04-21T05:24:20;101811.81;;;7.80;100.00
5996;BME280;3026;53.612;7.278;2023-04-21T05:26:48;101811.41;;;7.85;100.00
5996;BME280;3026;53.612;7.278;2023-04-21T05:29:16;101817.34;;;7.90;100.00
5996;BME280;3026;53.612;7.278;2023-04-21T05:31:43;101820.50;;;7.95;100.00
5996;BME280;3026;53.612;7.278;2023-04-21T05:34:10;101818.28;;;8.00;100.00
5996;BME280;3026;53.612;7.278;2023-04-21T05:36:40;101817.72;;;8.06;100.00
5996;BME280;3026;53.612;7.278;2023-04-21T05:39:07;101815.50;;;8.11;100.00
5996;BME280;3026;53.612;7.278;2023-04-21T05:41:35;101825.81;;;8.17;100.00
5996;BME280;3026;53.612;7.278;2023-04-21T05:44:02;101813.56;;;8.23;100.00
5996;BME280;3026;53.612;7.278;2023-04-21T05:46:29;101817.59;;;8.29;100.00
5996;BME280;3026;53.612;7.278;2023-04-21T05:48:56;101820.78;;;8.34;100.00
5996;BME280;3026;53.612;7.278;2023-04-21T05:51:22;101807.66;;;8.39;100.00
5996;BME280;3026;53.612;7.278;2023-04-21T05:53:49;101816.00;;;8.47;100.00
5996;BME280;3026;53.612;7.278;2023-04-21T05:56:16;101802.88;;;8.52;100.00
5996;BME280;3026;53.612;7.278;2023-04-21T05:58:44;101797.91;;;8.57;100.00
5996;BME280;3026;53.612;7.278;2023-04-21T06:01:11;101804.50;;;8.64;100.00
5996;BME280;3026;53.612;7.278;2023-04-21T06:03:39;101804.97;;;8.69;100.00
5996;BME280;3026;53.612;7.278;2023-04-21T06:06:06;101791.66;;;8.76;100.00
5996;BME280;3026;53.612;7.278;2023-04-21T06:08:33;101798.13;;;8.85;100.00
5996;BME280;3026;53.612;7.278;2023-04-21T06:11:00;101786.97;;;8.88;100.00
5996;BME280;3026;53.612;7.278;2023-04-21T06:13:27;101791.72;;;8.95;100.00
5996;BME280;3026;53.612;7.278;2023-04-21T06:15:55;101795.59;;;9.02;100.00
5996;BME280;3026;53.612;7.278;2023-04-21T06:18:22;101794.19;;;9.08;100.00
5996;BME280;3026;53.612;7.278;2023-04-21T06:20:49;101800.81;;;9.15;100.00
5996;BME280;3026;53.612;7.278;2023-04-21T06:23:16;101796.50;;;9.22;100.00
5996;BME280;3026;53.612;7.278;2023-04-21T06:25:43;101786.78;;;9.29;100.00
5996;BME280;3026;53.612;7.278;2023-04-21T06:28:10;101786.91;;;9.38;100.00
5996;BME280;3026;53.612;7.278;2023-04-21T06:30:37;101779.06;;;9.44;100.00
5996;BME280;3026;53.612;7.278;2023-04-21T06:33:05;101781.06;;;9.52;100.00
5996;BME280;3026;53.612;7.278;2023-04-21T06:35:32;101781.19;;;9.60;100.00
5996;BME280;3026;53.612;7.278;2023-04-21T06:37:59;101783.34;;;9.66;100.00
5996;BME280;3026;53.612;7.278;2023-04-21T06:40:26;101777.31;;;9.72;100.00
5996;BME280;3026;53.612;7.278;2023-04-21T06:42:52;101779.34;;;9.80;100.00
5996;BME280;3026;53.612;7.278;2023-04-21T06:45:19;101774.19;;;9.86;100.00
5996;BME280;3026;53.612;7.278;2023-04-21T06:47:46;101767.88;;;9.96;100.00
5996;BME280;3026;53.612;7.278;2023-04-21T06:50:14;101769.69;;;10.05;100.00
5996;BME280;3026;53.612;7.278;2023-04-21T06:52:41;101769.81;;;10.13;100.00
5996;BME280;3026;53.612;7.278;2023-04-21T06:55:08;101755.47;;;10.20;100.00
5996;BME280;3026;53.612;7.278;2023-04-21T06:57:35;101766.66;;;10.27;100.00
5996;BME280;3026;53.612;7.278;2023-04-21T07:00:02;101765.06;;;10.34;100.00
5996;BME280;3026;53.612;7.278;2023-04-21T07:02:31;101774.06;;;10.44;100.00
5996;BME280;3026;53.612;7.278;2023-04-21T07:04:57;101768.69;;;10.52;100.00
5996;BME280;3026;53.612;7.278;2023-04-21T07:07:26;101756.50;;;10.57;100.00
5996;BME280;3026;53.612;7.278;2023-04-21T07:09:52;101769.63;;;10.71;100.00
5996;BME280;3026;53.612;7.278;2023-04-21T07:12:19;101767.03;;;10.79;100.00
5996;BME280;3026;53.612;7.278;2023-04-21T07:14:46;101766.09;;;10.88;100.00
5996;BME280;3026;53.612;7.278;2023-04-21T07:17:13;101766.03;;;10.98;100.00
5996;BME280;3026;53.612;7.278;2023-04-21T07:19:40;101751.31;;;11.08;100.00
5996;BME280;3026;53.612;7.278;2023-04-21T07:22:06;101759.28;;;11.20;100.00
5996;BME280;3026;53.612;7.278;2023-04-21T07:24:35;101758.06;;;11.32;100.00
5996;BME280;3026;53.612;7.278;2023-04-21T07:27:02;101758.53;;;11.45;100.00
5996;BME280;3026;53.612;7.278;2023-04-21T07:29:29;101751.50;;;11.60;100.00
5996;BME280;3026;53.612;7.278;2023-04-21T07:31:56;101761.19;;;11.73;100.00
5996;BME280;3026;53.612;7.278;2023-04-21T07:34:24;101746.97;;;11.87;100.00
5996;BME280;3026;53.612;7.278;2023-04-21T07:36:51;101737.66;;;11.97;100.00
5996;BME280;3026;53.612;7.278;2023-04-21T07:39:18;101748.00;;;12.12;100.00
5996;BME280;3026;53.612;7.278;2023-04-21T07:41:46;101745.41;;;12.28;100.00
5996;BME280;3026;53.612;7.278;2023-04-21T07:44:13;101751.28;;;12.41;100.00
5996;BME280;3026;53.612;7.278;2023-04-21T07:46:40;101745.03;;;12.57;100.00
5996;BME280;3026;53.612;7.278;2023-04-21T07:49:07;101737.91;;;12.72;100.00
5996;BME280;3026;53.612;7.278;2023-04-21T07:51:33;101747.50;;;12.84;100.00
5996;BME280;3026;53.612;7.278;2023-04-21T07:54:00;101738.34;;;13.02;100.00
5996;BME280;3026;53.612;7.278;2023-04-21T07:56:27;101739.25;;;13.19;100.00
5996;BME280;3026;53.612;7.278;2023-04-21T07:58:55;101731.06;;;13.27;100.00
5996;BME280;3026;53.612;7.278;2023-04-21T08:01:22;101729.06;;;13.45;100.00
5996;BME280;3026;53.612;7.278;2023-04-21T08:03:49;101726.50;;;13.60;100.00
5996;BME280;3026;53.612;7.278;2023-04-21T08:06:15;101732.31;;;13.73;100.00
5996;BME280;3026;53.612;7.278;2023-04-21T08:08:42;101734.38;;;13.79;100.00
5996;BME280;3026;53.612;7.278;2023-04-21T08:11:09;101728.19;;;13.93;100.00
5996;BME280;3026;53.612;7.278;2023-04-21T08:13:36;101718.56;;;14.14;100.00
5996;BME280;3026;53.612;7.278;2023-04-21T08:16:04;101723.34;;;14.20;100.00
5996;BME280;3026;53.612;7.278;2023-04-21T08:18:31;101716.25;;;14.34;100.00
5996;BME280;3026;53.612;7.278;2023-04-21T08:20:58;101723.13;;;14.46;100.00
5996;BME280;3026;53.612;7.278;2023-04-21T08:23:25;101721.22;;;14.54;100.00
5996;BME280;3026;53.612;7.278;2023-04-21T08:25:54;101717.72;;;14.69;100.00
5996;BME280;3026;53.612;7.278;2023-04-21T08:28:21;101713.22;;;14.76;100.00
5996;BME280;3026;53.612;7.278;2023-04-21T08:30:47;101717.78;;;14.92;100.00
5996;BME280;3026;53.612;7.278;2023-04-21T08:33:16;101723.69;;;15.11;100.00
5996;BME280;3026;53.612;7.278;2023-04-21T08:35:42;101712.94;;;15.25;100.00
5996;BME280;3026;53.612;7.278;2023-04-21T08:38:09;101719.66;;;15.45;100.00
5996;BME280;3026;53.612;7.278;2023-04-21T08:40:37;101724.75;;;15.56;100.00
5996;BME280;3026;53.612;7.278;2023-04-21T08:43:04;101715.44;;;15.65;100.00
5996;BME280;3026;53.612;7.278;2023-04-21T08:45:32;101712.97;;;15.70;100.00
5996;BME280;3026;53.612;7.278;2023-04-21T08:47:59;101707.94;;;15.74;100.00
5996;BME280;3026;53.612;7.278;2023-04-21T08:50:29;101702.56;;;15.81;100.00
5996;BME280;3026;53.612;7.278;2023-04-21T08:52:56;101721.66;;;15.97;100.00
5996;BME280;3026;53.612;7.278;2023-04-21T08:55:28;101725.56;;;16.17;100.00
5996;BME280;3026;53.612;7.278;2023-04-21T08:57:55;101712.31;;;16.36;100.00
5996;BME280;3026;53.612;7.278;2023-04-21T09:00:23;101712.41;;;16.42;100.00
5996;BME280;3026;53.612;7.278;2023-04-21T09:02:54;101716.56;;;16.53;100.00
5996;BME280;3026;53.612;7.278;2023-04-21T09:05:22;101704.22;;;16.63;100.00
5996;BME280;3026;53.612;7.278;2023-04-21T09:07:52;101706.06;;;16.71;100.00
5996;BME280;3026;53.612;7.278;2023-04-21T09:10:23;101703.97;;;16.73;100.00
5996;BME280;3026;53.612;7.278;2023-04-21T09:12:53;101707.09;;;16.85;100.00
5996;BME280;3026;53.612;7.278;2023-04-21T09:15:20;101701.47;;;16.78;100.00
5996;BME280;3026;53.612;7.278;2023-04-21T09:17:54;101697.31;;;16.82;100.00
5996;BME280;3026;53.612;7.278;2023-04-21T09:20:22;101710.59;;;16.94;100.00
5996;BME280;3026;53.612;7.278;2023-04-21T09:22:49;101706.94;;;17.08;100.00
5996;BME280;3026;53.612;7.278;2023-04-21T09:25:19;101705.47;;;17.12;100.00
5996;BME280;3026;53.612;7.278;2023-04-21T09:27:46;101716.41;;;17.20;100.00
5996;BME280;3026;53.612;7.278;2023-04-21T09:30:14;101697.91;;;17.14;100.00
5996;BME280;3026;53.612;7.278;2023-04-21T09:32:43;101702.91;;;17.25;100.00
5996;BME280;3026;53.612;7.278;2023-04-21T09:35:10;101705.63;;;17.46;100.00
5996;BME280;3026;53.612;7.278;2023-04-21T09:37:38;101702.75;;;17.55;100.00
5996;BME280;3026;53.612;7.278;2023-04-21T09:40:06;101694.28;;;17.56;100.00
5996;BME280;3026;53.612;7.278;2023-04-21T09:42:34;101688.44;;;17.66;100.00
5996;BME280;3026;53.612;7.278;2023-04-21T09:45:01;101687.38;;;17.88;100.00
5996;BME280;3026;53.612;7.278;2023-04-21T09:47:28;101690.50;;;18.06;100.00
5996;BME280;3026;53.612;7.278;2023-04-21T09:49:57;101689.28;;;18.16;100.00
5996;BME280;3026;53.612;7.278;2023-04-21T09:52:25;101696.75;;;18.22;100.00
5996;BME280;3026;53.612;7.278;2023-04-21T09:54:57;101690.69;;;18.33;100.00
5996;BME280;3026;53.612;7.278;2023-04-21T09:57:25;101682.25;;;18.41;100.00
5996;BME280;3026;53.612;7.278;2023-04-21T09:59:59;101679.06;;;18.44;100.00
5996;BME280;3026;53.612;7.278;2023-04-21T10:02:29;101681.19;;;18.42;100.00
5996;BME280;3026;53.612;7.278;2023-04-21T10:04:57;101675.81;;;18.34;100.00
5996;BME280;3026;53.612;7.278;2023-04-21T10:07:23;101680.50;;;18.40;100.00
5996;BME280;3026;53.612;7.278;2023-04-21T10:09:51;101677.84;;;18.53;100.00
5996;BME280;3026;53.612;7.278;2023-04-21T10:12:20;101679.00;;;18.72;100.00
5996;BME280;3026;53.612;7.278;2023-04-21T10:14:49;101679.47;;;18.82;100.00
5996;BME280;3026;53.612;7.278;2023-04-21T10:17:21;101679.47;;;18.76;100.00
5996;BME280;3026;53.612;7.278;2023-04-21T10:19:50;101673.47;;;18.65;100.00
5996;BME280;3026;53.612;7.278;2023-04-21T10:22:25;101672.13;;;18.61;100.00
5996;BME280;3026;53.612;7.278;2023-04-21T10:24:55;101671.06;;;18.62;100.00
5996;BME280;3026;53.612;7.278;2023-04-21T10:27:32;101664.75;;;18.69;100.00
5996;BME280;3026;53.612;7.278;2023-04-21T10:29:59;101653.94;;;18.74;100.00
5996;BME280;3026;53.612;7.278;2023-04-21T10:32:41;101659.28;;;18.82;100.00
5996;BME280;3026;53.612;7.278;2023-04-21T10:35:09;101653.16;;;18.93;100.00
5996;BME280;3026;53.612;7.278;2023-04-21T10:37:37;101650.22;;;19.01;100.00
5996;BME280;3026;53.612;7.278;2023-04-21T10:40:07;101642.75;;;19.08;100.00
5996;BME280;3026;53.612;7.278;2023-04-21T10:42:54;101654.97;;;19.34;100.00
5996;BME280;3026;53.612;7.278;2023-04-21T10:45:23;101650.25;;;19.41;100.00
5996;BME280;3026;53.612;7.278;2023-04-21T10:47:52;101641.78;;;19.49;100.00
5996;BME280;3026;53.612;7.278;2023-04-21T10:50:21;101636.25;;;19.56;100.00
5996;BME280;3026;53.612;7.278;2023-04-21T10:52:55;101635.41;;;19.55;100.00
5996;BME280;3026;53.612;7.278;2023-04-21T10:55:25;101624.31;;;19.42;100.00
5996;BME280;3026;53.612;7.278;2023-04-21T10:57:52;101623.47;;;19.48;100.00
5996;BME280;3026;53.612;7.278;2023-04-21T11:00:21;101615.16;;;19.41;100.00
5996;BME280;3026;53.612;7.278;2023-04-21T11:02:54;101614.94;;;19.30;100.00
5996;BME280;3026;53.612;7.278;2023-04-21T11:05:29;101612.41;;;19.35;100.00
5996;BME280;3026;53.612;7.278;2023-04-21T11:08:03;101622.19;;;19.50;100.00
5996;BME280;3026;53.612;7.278;2023-04-21T11:10:50;101616.25;;;19.60;100.00
5996;BME280;3026;53.612;7.278;2023-04-21T11:13:20;101610.72;;;19.73;100.00
5996;BME280;3026;53.612;7.278;2023-04-21T11:16:05;101599.19;;;20.03;100.00
5996;BME280;3026;53.612;7.278;2023-04-21T11:18:36;101598.06;;;20.17;100.00
5996;BME280;3026;53.612;7.278;2023-04-21T11:21:13;101596.31;;;20.29;100.00
5996;BME280;3026;53.612;7.278;2023-04-21T11:23:53;101592.25;;;20.38;100.00
5996;BME280;3026;53.612;7.278;2023-04-21T11:26:30;101585.69;;;20.26;100.00
5996;BME280;3026;53.612;7.278;2023-04-21T11:28:59;101582.94;;;20.13;100.00
5996;BME280;3026;53.612;7.278;2023-04-21T11:31:27;101575.75;;;19.99;100.00
5996;BME280;3026;53.612;7.278;2023-04-21T11:33:57;101581.50;;;19.97;100.00
5996;BME280;3026;53.612;7.278;2023-04-21T11:36:24;101561.28;;;19.97;100.00
5996;BME280;3026;53.612;7.278;2023-04-21T11:38:51;101564.50;;;19.94;100.00
5996;BME280;3026;53.612;7.278;2023-04-21T11:41:22;101556.19;;;19.94;100.00
5996;BME280;3026;53.612;7.278;2023-04-21T11:43:50;101542.13;;;19.95;100.00
5996;BME280;3026;53.612;7.278;2023-04-21T11:46:22;101544.00;;;20.08;100.00
5996;BME280;3026;53.612;7.278;2023-04-21T11:48:59;101553.78;;;20.17;100.00
5996;BME280;3026;53.612;7.278;2023-04-21T11:51:26;101546.72;;;20.21;100.00
5996;BME280;3026;53.612;7.278;2023-04-21T11:53:57;101544.66;;;20.03;100.00
5996;BME280;3026;53.612;7.278;2023-04-21T11:56:25;101539.19;;;19.84;100.00
5996;BME280;3026;53.612;7.278;2023-04-21T11:58:51;101545.97;;;19.88;100.00
5996;BME280;3026;53.612;7.278;2023-04-21T12:01:19;101532.94;;;20.01;100.00
5996;BME280;3026;53.612;7.278;2023-04-21T12:03:50;101535.31;;;19.98;100.00
5996;BME280;3026;53.612;7.278;2023-04-21T12:06:22;101539.13;;;20.03;100.00
5996;BME280;3026;53.612;7.278;2023-04-21T12:08:54;101533.59;;;19.97;100.00
5996;BME280;3026;53.612;7.278;2023-04-21T12:11:22;101532.53;;;19.98;100.00
5996;BME280;3026;53.612;7.278;2023-04-21T12:13:49;101525.47;;;20.02;100.00
5996;BME280;3026;53.612;7.278;2023-04-21T12:16:16;101517.84;;;20.04;100.00
5996;BME280;3026;53.612;7.278;2023-04-21T12:18:43;101519.25;;;20.13;100.00
5996;BME280;3026;53.612;7.278;2023-04-21T12:21:13;101523.38;;;20.04;100.00
5996;BME280;3026;53.612;7.278;2023-04-21T12:23:41;101524.44;;;20.03;100.00
5996;BME280;3026;53.612;7.278;2023-04-21T12:26:09;101508.88;;;20.02;100.00
5996;BME280;3026;53.612;7.278;2023-04-21T12:28:36;101516.56;;;20.00;100.00
5996;BME280;3026;53.612;7.278;2023-04-21T12:31:03;101511.47;;;19.97;100.00
5996;BME280;3026;53.612;7.278;2023-04-21T12:33:30;101518.69;;;19.98;100.00
5996;BME280;3026;53.612;7.278;2023-04-21T12:35:57;101508.88;;;20.02;100.00
5996;BME280;3026;53.612;7.278;2023-04-21T12:38:24;101514.41;;;20.02;100.00
5996;BME280;3026;53.612;7.278;2023-04-21T12:40:52;101515.25;;;20.09;100.00
5996;BME280;3026;53.612;7.278;2023-04-21T12:43:19;101505.84;;;20.17;100.00
5996;BME280;3026;53.612;7.278;2023-04-21T12:45:46;101507.56;;;20.18;100.00
5996;BME280;3026;53.612;7.278;2023-04-21T12:48:13;101497.31;;;20.18;100.00
5996;BME280;3026;53.612;7.278;2023-04-21T12:50:40;101491.78;;;20.18;100.00
5996;BME280;3026;53.612;7.278;2023-04-21T12:53:06;101506.06;;;20.15;100.00
5996;BME280;3026;53.612;7.278;2023-04-21T12:55:33;101493.94;;;20.16;100.00
5996;BME280;3026;53.612;7.278;2023-04-21T12:58:01;101486.69;;;20.15;99.87
5996;BME280;3026;53.612;7.278;2023-04-21T13:00:28;101491.78;;;20.18;100.00
5996;BME280;3026;53.612;7.278;2023-04-21T13:02:56;101478.56;;;20.20;99.86
5996;BME280;3026;53.612;7.278;2023-04-21T13:05:23;101475.56;;;20.22;99.76
5996;BME280;3026;53.612;7.278;2023-04-21T13:07:49;101472.56;;;20.30;98.79